Time;durP1;ratioP1;P1;durP2;ratioP2;P2;SDS_P1;SDS_P2;PMS_P1;PMS_P2;Temp;Humidity;BMP_temperature;BMP_pressure;BME280_temperature;BME280_humidity;BME280_pressure;Samples;Min_cycle;Max_cycle;Signal;HPM_P1;HPM_P2
2023/01/17 00:10:10;;;;;;;;;;;;;;;18.88;34.69;92907.50;10428518;28;2054;-44
2023/01/17 00:15:10;;;;;;;;;;;;;;;18.86;34.62;92924.66;10428661;28;1992;-45
2023/01/17 01:33:49;;;;;;;;;;;;;;;18.44;33.70;92987.09;10430559;28;2474;-44
2023/01/17 01:38:49;;;;;;;;;;;;;;;18.41;33.47;92998.97;10420862;28;2000;-44
2023/01/17 01:43:53;;;;;;;;;;;;;;;18.40;33.87;92980.94;10431190;28;1918;-43
2023/01/17 01:48:54;;;;;;;;;;;;;;;18.41;33.99;92992.94;10433857;28;2109;-43
2023/01/17 01:53:58;;;;;;;;;;;;;;;18.37;33.84;92997.31;10438722;28;2385;-46
2023/01/17 01:58:58;;;;;;;;;;;;;;;18.35;33.86;92991.63;10429092;28;2173;-43
2023/01/17 02:09:36;;;;;;;;;;;;;;;18.29;33.57;92992.94;10387237;28;3882;-44
2023/01/17 02:14:37;;;;;;;;;;;;;;;18.27;33.76;92998.50;10376888;28;3995;-43
2023/01/17 02:19:56;;;;;;;;;;;;;;;18.26;33.62;92998.84;10353947;28;2071;-46
2023/01/17 02:24:56;;;;;;;;;;;;;;;18.26;33.85;92998.84;10349092;28;2042;-43
2023/01/17 02:30:15;;;;;;;;;;;;;;;18.24;33.67;92993.13;10360067;28;2064;-43
2023/01/17 02:35:27;;;;;;;;;;;;;;;18.20;33.79;92984.38;10355074;28;2056;-44
2023/01/17 02:40:29;;;;;;;;;;;;;;;18.20;33.61;92997.47;10364715;28;2014;-50
2023/01/17 02:45:29;;;;;;;;;;;;;;;18.19;33.76;92998.59;10347919;28;2064;-45
2023/01/17 02:50:48;;;;;;;;;;;;;;;18.16;33.66;92991.34;10350444;28;2099;-47
2023/01/17 02:56:05;;;;;;;;;;;;;;;18.13;33.78;92992.03;10341023;28;2178;-47
2023/01/17 03:01:05;;;;;;;;;;;;;;;18.13;33.69;92992.03;10345185;28;2418;-45
2023/01/17 03:06:10;;;;;;;;;;;;;;;18.09;33.97;92997.16;10348334;28;1986;-46
2023/01/17 03:11:11;;;;;;;;;;;;;;;18.07;34.04;93004.56;10351268;28;1983;-46
2023/01/17 03:16:12;;;;;;;;;;;;;;;18.08;33.73;93005.31;10363874;28;1996;-45
2023/01/17 03:21:13;;;;;;;;;;;;;;;18.06;34.01;93007.50;10339539;28;2066;-44
2023/01/17 03:26:13;;;;;;;;;;;;;;;18.04;33.95;93010.44;10347522;28;2110;-44
2023/01/17 03:31:14;;;;;;;;;;;;;;;18.03;34.01;93014.16;10355728;28;2160;-44
2023/01/17 03:36:14;;;;;;;;;;;;;;;18.02;33.79;93017.09;10342378;28;1982;-43
2023/01/17 03:41:14;;;;;;;;;;;;;;;18.01;34.07;93020.81;10341749;28;2003;-47
2023/01/17 03:46:19;;;;;;;;;;;;;;;18.00;34.12;93014.03;10350593;28;2042;-44
2023/01/17 03:51:19;;;;;;;;;;;;;;;17.99;34.02;93023.00;10339848;28;1960;-42
2023/01/17 03:56:20;;;;;;;;;;;;;;;17.99;34.11;93023.00;10352601;28;2014;-45
2023/01/17 04:01:20;;;;;;;;;;;;;;;17.98;34.17;93026.69;10344614;28;2043;-46
2023/01/17 04:06:20;;;;;;;;;;;;;;;17.97;34.17;93030.41;10334669;28;2153;-46
2023/01/17 04:11:20;;;;;;;;;;;;;;;17.95;34.19;93022.09;10351272;28;1946;-43
2023/01/17 04:16:21;;;;;;;;;;;;;;;17.94;34.14;93010.06;10342731;28;1993;-48
2023/01/17 04:21:21;;;;;;;;;;;;;;;17.92;34.19;93012.25;10367929;28;2053;-43
2023/01/17 04:26:21;;;;;;;;;;;;;;;17.89;34.14;93017.06;10339241;28;1990;-42
2023/01/17 04:31:21;;;;;;;;;;;;;;;17.90;34.14;93015.19;10338154;28;2074;-45
2023/01/17 04:36:22;;;;;;;;;;;;;;;17.87;34.17;93016.59;10350303;28;1998;-45
2023/01/17 04:41:22;;;;;;;;;;;;;;;17.87;34.14;93019.22;10357955;28;2041;-43
2023/01/17 04:46:22;;;;;;;;;;;;;;;17.85;34.18;93018.00;10358571;28;2106;-48
2023/01/17 04:51:23;;;;;;;;;;;;;;;17.82;34.32;93022.06;10356468;28;1979;-44
2023/01/17 04:56:23;;;;;;;;;;;;;;;17.82;34.18;93014.19;10359062;28;1951;-46
2023/01/17 05:01:23;;;;;;;;;;;;;;;17.81;34.24;93011.88;10347989;28;1979;-44
2023/01/17 05:06:23;;;;;;;;;;;;;;;17.81;34.25;93010.03;10353384;28;2036;-43
2023/01/17 05:11:24;;;;;;;;;;;;;;;17.83;34.38;93015.72;10353996;28;1951;-44
2023/01/17 05:16:24;;;;;;;;;;;;;;;17.94;34.46;93012.69;10357797;28;1923;-45
2023/01/17 05:21:24;;;;;;;;;;;;;;;18.00;34.58;93035.78;10376354;28;1952;-44
2023/01/17 05:26:25;;;;;;;;;;;;;;;18.05;34.59;93037.44;10348425;28;1991;-44
2023/01/17 05:31:25;;;;;;;;;;;;;;;18.14;34.50;93040.72;10351357;28;2057;-45
2023/01/17 05:36:25;;;;;;;;;;;;;;;18.17;34.25;93050.56;10347947;28;2133;-46
2023/01/17 05:41:25;;;;;;;;;;;;;;;18.16;34.00;93059.53;10362910;28;1784;-45
2023/01/17 05:46:25;;;;;;;;;;;;;;;18.25;33.19;93057.59;10373614;28;1910;-43
2023/01/17 05:51:26;;;;;;;;;;;;;;;18.25;33.40;93063.63;10365439;28;1780;-50
2023/01/17 05:56:26;;;;;;;;;;;;;;;18.28;32.88;93064.84;10350305;28;1968;-43
2023/01/17 06:01:26;;;;;;;;;;;;;;;18.32;33.18;93070.97;10348412;28;1974;-46
2023/01/17 06:06:27;;;;;;;;;;;;;;;18.28;32.41;93070.06;10350170;28;2032;-45
2023/01/17 06:11:27;;;;;;;;;;;;;;;18.28;32.35;93062.94;10358240;28;2076;-44
2023/01/17 06:16:27;;;;;;;;;;;;;;;18.34;32.41;93074.03;10357214;28;2027;-45
2023/01/17 06:21:28;;;;;;;;;;;;;;;18.43;32.85;93062.38;10363510;28;2041;-47
2023/01/17 06:26:28;;;;;;;;;;;;;;;18.48;32.71;93045.69;10357272;28;2173;-46
2023/01/17 06:31:28;;;;;;;;;;;;;;;18.48;32.17;93040.44;10350880;28;2097;-45
2023/01/17 06:36:29;;;;;;;;;;;;;;;18.52;32.01;93036.84;10353974;28;1960;-46
2023/01/17 06:41:29;;;;;;;;;;;;;;;18.56;31.56;93048.22;10353104;28;2065;-46
2023/01/17 06:46:29;;;;;;;;;;;;;;;18.56;31.89;93042.19;10348190;28;2059;-45
2023/01/17 06:51:30;;;;;;;;;;;;;;;18.52;31.73;93042.09;10345830;28;2069;-46
2023/01/17 06:56:31;;;;;;;;;;;;;;;18.55;31.70;93045.91;10351989;28;1944;-44
2023/01/17 07:01:31;;;;;;;;;;;;;;;18.59;31.17;93052.03;10350546;28;2098;-46
2023/01/17 07:06:31;;;;;;;;;;;;;;;18.60;31.10;93045.69;10346902;28;2015;-46
2023/01/17 07:11:31;;;;;;;;;;;;;;;18.62;31.29;93036.41;10351801;28;2045;-44
2023/01/17 07:16:32;;;;;;;;;;;;;;;18.65;30.91;93032.34;10343850;28;1952;-46
2023/01/17 07:21:32;;;;;;;;;;;;;;;18.66;31.14;93026.81;10349434;28;2134;-44
2023/01/17 07:26:33;;;;;;;;;;;;;;;18.71;31.11;93033.72;10353956;28;1973;-47
2023/01/17 07:31:35;;;;;;;;;;;;;;;18.73;30.98;93036.78;10348829;28;2003;-43
2023/01/17 07:36:35;;;;;;;;;;;;;;;18.75;30.86;93045.09;10346963;28;2014;-46
2023/01/17 07:41:40;;;;;;;;;;;;;;;18.76;30.94;93030.84;10343774;28;1971;-47
2023/01/17 07:46:40;;;;;;;;;;;;;;;18.77;30.83;93032.41;10340294;28;2094;-43
2023/01/17 07:51:40;;;;;;;;;;;;;;;18.83;30.96;93033.72;10345934;28;2044;-44
2023/01/17 07:56:44;;;;;;;;;;;;;;;18.85;30.64;93033.38;10355466;28;1982;-44
2023/01/17 08:01:44;;;;;;;;;;;;;;;18.91;30.86;93011.06;10353914;28;2073;-44
2023/01/17 08:06:50;;;;;;;;;;;;;;;18.93;31.14;93004.41;10351719;28;2073;-45
2023/01/17 08:11:50;;;;;;;;;;;;;;;18.93;30.71;92999.16;10346772;28;2074;-45
2023/01/17 08:16:51;;;;;;;;;;;;;;;18.96;31.00;93003.72;10342365;28;2162;-44
2023/01/17 08:21:51;;;;;;;;;;;;;;;18.99;30.63;93010.19;10351364;28;2002;-46
2023/01/17 08:26:54;;;;;;;;;;;;;;;19.06;32.58;92995.41;10348306;28;2011;-45
2023/01/17 08:31:54;;;;;;;;;;;;;;;19.04;31.21;93002.84;10355098;28;2414;-43
2023/01/17 08:36:54;;;;;;;;;;;;;;;19.10;32.32;92992.91;10348579;28;2020;-45
2023/01/17 08:41:56;;;;;;;;;;;;;;;19.11;32.62;92994.44;10347694;28;1982;-43
2023/01/17 08:46:56;;;;;;;;;;;;;;;19.12;33.71;92986.25;10337737;28;2052;-47
2023/01/17 08:51:56;;;;;;;;;;;;;;;19.12;33.49;92983.63;10344806;28;2074;-44
2023/01/17 08:56:56;;;;;;;;;;;;;;;19.12;33.67;92975.75;10350590;28;2045;-45
2023/01/17 09:01:57;;;;;;;;;;;;;;;19.09;33.88;92981.63;10341701;28;1987;-46
2023/01/17 09:06:57;;;;;;;;;;;;;;;19.08;33.65;92979.34;10337807;28;2112;-44
2023/01/17 09:11:58;;;;;;;;;;;;;;;19.12;33.72;92988.09;10351409;28;2038;-45
2023/01/17 09:16:58;;;;;;;;;;;;;;;19.10;33.77;92998.16;10347374;28;1959;-44
2023/01/17 09:21:58;;;;;;;;;;;;;;;19.07;33.84;93004.84;10347429;28;1970;-44
2023/01/17 09:26:59;;;;;;;;;;;;;;;19.07;33.84;92999.59;10349565;28;2173;-44
2023/01/17 09:31:59;;;;;;;;;;;;;;;19.04;33.79;92992.34;10352818;28;2030;-43
2023/01/17 09:37:00;;;;;;;;;;;;;;;19.02;33.88;92989.28;10361708;28;1908;-46
2023/01/17 09:42:00;;;;;;;;;;;;;;;18.95;33.94;92973.34;10360352;28;2022;-48
2023/01/17 09:47:06;;;;;;;;;;;;;;;18.97;34.13;92965.13;10376415;28;1966;-45
2023/01/17 09:52:06;;;;;;;;;;;;;;;18.97;34.33;92963.28;10371412;28;1954;-43
2023/01/17 09:57:25;;;;;;;;;;;;;;;18.94;34.41;92950.81;10355624;28;2117;-44
2023/01/17 10:02:32;;;;;;;;;;;;;;;18.96;34.48;92922.34;10359747;28;2101;-46
2023/01/17 10:07:42;;;;;;;;;;;;;;;18.88;34.62;92899.63;10369531;28;1981;-47
2023/01/17 10:12:55;;;;;;;;;;;;;;;18.93;34.65;92880.28;10357197;28;1947;-46
2023/01/17 10:17:55;;;;;;;;;;;;;;;18.94;34.64;92892.31;10351601;28;1961;-45
2023/01/17 10:23:15;;;;;;;;;;;;;;;18.88;34.83;92877.84;10350161;28;1962;-44
2023/01/17 10:28:16;;;;;;;;;;;;;;;18.84;34.97;92880.38;10355771;28;1962;-44
2023/01/17 10:33:22;;;;;;;;;;;;;;;18.83;35.02;92868.38;10353823;28;2188;-46
2023/01/17 10:38:24;;;;;;;;;;;;;;;18.84;35.05;92877.75;10354802;28;1979;-45
2023/01/17 10:43:30;;;;;;;;;;;;;;;18.82;35.07;92879.19;10351986;28;2049;-45
2023/01/17 10:48:46;;;;;;;;;;;;;;;18.78;35.13;92876.47;10358283;28;1984;-44
2023/01/17 10:53:50;;;;;;;;;;;;;;;18.75;35.31;92856.16;10352186;28;1997;-46
2023/01/17 10:58:53;;;;;;;;;;;;;;;18.75;35.35;92858.78;10350509;28;2019;-44
2023/01/17 11:03:54;;;;;;;;;;;;;;;18.78;35.09;92849.44;10367662;28;2013;-44
2023/01/17 11:08:58;;;;;;;;;;;;;;;18.73;35.55;92834.72;10343224;28;2098;-47
2023/01/17 11:13:59;;;;;;;;;;;;;;;18.71;36.74;92823.78;10353184;28;1921;-44
2023/01/17 11:19:14;;;;;;;;;;;;;;;18.72;37.02;92811.41;10374766;28;1970;-44
2023/01/17 11:24:16;;;;;;;;;;;;;;;18.73;37.29;92805.09;10371097;28;2058;-44
2023/01/17 11:29:26;;;;;;;;;;;;;;;18.71;37.51;92802.81;10374186;28;2104;-45
2023/01/17 11:34:28;;;;;;;;;;;;;;;18.69;37.57;92794.50;10353744;28;2038;-44
2023/01/17 11:39:28;;;;;;;;;;;;;;;18.67;37.76;92788.78;10354738;28;1962;-45
2023/01/17 11:44:29;;;;;;;;;;;;;;;18.68;37.56;92793.72;10351704;28;1918;-45
2023/01/17 11:49:30;;;;;;;;;;;;;;;18.65;37.58;92791.75;10343721;28;2055;-43
2023/01/17 11:54:37;;;;;;;;;;;;;;;18.62;37.42;92779.31;10354966;28;2039;-43
2023/01/17 11:59:41;;;;;;;;;;;;;;;18.61;37.66;92775.16;10356733;28;2104;-43
2023/01/17 12:04:41;;;;;;;;;;;;;;;18.60;37.63;92760.53;10348654;28;1977;-48
2023/01/17 12:09:54;;;;;;;;;;;;;;;18.64;37.91;92747.50;10337191;28;2015;-46
2023/01/17 12:14:59;;;;;;;;;;;;;;;18.60;37.80;92739.53;10336843;28;2110;-44
2023/01/17 12:20:00;;;;;;;;;;;;;;;18.58;37.91;92730.47;10358845;28;1966;-48
2023/01/17 12:25:19;;;;;;;;;;;;;;;18.59;37.90;92713.63;10339952;28;1982;-45
2023/01/17 12:30:19;;;;;;;;;;;;;;;18.59;37.70;92706.50;10335630;28;1981;-46
2023/01/17 12:35:21;;;;;;;;;;;;;;;18.54;37.71;92690.25;10343703;28;2061;-49
2023/01/17 12:40:23;;;;;;;;;;;;;;;18.53;37.82;92686.09;10342644;28;2042;-45
2023/01/17 12:45:42;;;;;;;;;;;;;;;18.58;37.59;92673.53;10365394;28;2111;-44
2023/01/17 12:50:46;;;;;;;;;;;;;;;18.47;37.75;92659.34;10345057;28;2121;-46
2023/01/17 12:55:49;;;;;;;;;;;;;;;18.40;37.93;92647.88;10351513;28;2137;-45
2023/01/17 13:00:59;;;;;;;;;;;;;;;18.37;37.92;92640.66;10354718;28;1939;-44
2023/01/17 13:05:59;;;;;;;;;;;;;;;18.29;38.26;92638.94;10356090;28;1959;-43
2023/01/17 13:11:08;;;;;;;;;;;;;;;18.31;37.94;92631.50;10357887;28;1954;-44
2023/01/17 13:16:16;;;;;;;;;;;;;;;18.41;37.65;92610.06;10368298;28;1951;-43
2023/01/17 13:21:32;;;;;;;;;;;;;;;18.39;37.55;92622.75;10357485;28;1899;-45
2023/01/17 13:26:51;;;;;;;;;;;;;;;18.25;37.72;92627.59;10356063;28;1955;-44
2023/01/17 13:32:07;;;;;;;;;;;;;;;18.17;37.84;92618.03;10351600;28;1966;-43
2023/01/17 13:37:14;;;;;;;;;;;;;;;18.19;37.68;92618.44;10360240;28;2006;-47
2023/01/17 13:42:32;;;;;;;;;;;;;;;18.28;37.46;92600.72;10354120;28;1956;-45
2023/01/17 13:47:37;;;;;;;;;;;;;;;18.28;37.52;92608.59;10363056;28;2007;-44
2023/01/17 13:52:37;;;;;;;;;;;;;;;18.29;37.44;92602.25;10350783;28;2066;-45
2023/01/17 13:57:42;;;;;;;;;;;;;;;18.20;37.46;92609.47;10364220;28;1931;-44
2023/01/17 14:02:42;;;;;;;;;;;;;;;18.26;37.46;92589.81;10352986;28;1970;-45
2023/01/17 14:07:47;;;;;;;;;;;;;;;18.35;37.09;92579.94;10343555;28;1971;-47
2023/01/17 14:12:47;;;;;;;;;;;;;;;18.42;36.90;92578.25;10360503;28;2065;-46
2023/01/17 14:17:55;;;;;;;;;;;;;;;18.37;37.08;92572.50;10372899;28;2024;-47
2023/01/17 14:23:02;;;;;;;;;;;;;;;18.37;36.56;92562.78;10366413;28;2015;-45
2023/01/17 14:28:04;;;;;;;;;;;;;;;18.36;37.17;92548.13;10346279;28;1963;-43
2023/01/17 14:33:13;;;;;;;;;;;;;;;18.27;37.45;92558.00;10350649;28;2006;-44
2023/01/17 14:38:14;;;;;;;;;;;;;;;18.28;37.27;92541.16;10377012;28;1943;-44
2023/01/17 14:43:17;;;;;;;;;;;;;;;18.29;37.34;92519.13;10361978;28;1905;-44
2023/01/17 14:48:17;;;;;;;;;;;;;;;18.31;36.94;92500.41;10350767;28;2079;-46
2023/01/17 14:53:21;;;;;;;;;;;;;;;18.36;36.97;92494.94;10343640;28;1943;-46
2023/01/17 14:58:26;;;;;;;;;;;;;;;18.38;36.71;92492.75;10353795;28;1967;-47
2023/01/17 15:03:26;;;;;;;;;;;;;;;18.45;36.63;92501.56;10346875;28;1944;-47
2023/01/17 15:08:28;;;;;;;;;;;;;;;18.54;36.71;92489.06;10348612;28;1947;-43
2023/01/17 15:13:32;;;;;;;;;;;;;;;18.60;36.30;92492.19;10349975;28;2109;-44
2023/01/17 15:18:36;;;;;;;;;;;;;;;18.66;36.11;92488.97;10355198;28;2068;-45
2023/01/17 15:23:42;;;;;;;;;;;;;;;18.65;35.91;92494.53;10351971;28;2039;-43
2023/01/17 15:28:43;;;;;;;;;;;;;;;18.81;35.73;92492.69;10332451;28;2203;-47
2023/01/17 15:33:45;;;;;;;;;;;;;;;18.81;35.47;92476.94;10347922;28;2275;-44
2023/01/17 15:38:56;;;;;;;;;;;;;;;18.87;35.89;92480.06;10360494;28;1978;-45
2023/01/17 15:43:57;;;;;;;;;;;;;;;18.93;35.61;92461.09;10348101;28;1991;-47
2023/01/17 15:49:05;;;;;;;;;;;;;;;18.97;35.15;92461.94;10344802;28;1927;-44
2023/01/17 15:54:25;;;;;;;;;;;;;;;18.93;35.02;92455.06;10356861;28;1988;-45
2023/01/17 15:59:47;;;;;;;;;;;;;;;18.86;33.48;92439.94;10354853;28;2001;-44
2023/01/17 16:04:47;;;;;;;;;;;;;;;18.89;33.64;92431.38;10343746;28;2026;-44
2023/01/17 16:09:47;;;;;;;;;;;;;;;18.88;32.65;92435.09;10367232;28;1972;-43
2023/01/17 16:14:47;;;;;;;;;;;;;;;18.91;33.36;92438.91;10343115;28;2026;-44
2023/01/17 16:19:48;;;;;;;;;;;;;;;18.93;32.84;92441.97;10347422;28;1955;-48
2023/01/17 16:24:48;;;;;;;;;;;;;;;18.89;32.95;92446.38;10343228;28;1950;-45
2023/01/17 16:29:48;;;;;;;;;;;;;;;18.89;32.06;92449.00;10344998;28;2101;-46
2023/01/17 16:34:48;;;;;;;;;;;;;;;18.89;31.75;92441.88;10348650;28;1939;-44
2023/01/17 16:39:49;;;;;;;;;;;;;;;18.92;31.98;92449.06;10351580;28;1990;-45
2023/01/17 16:44:49;;;;;;;;;;;;;;;18.92;32.06;92454.31;10347713;28;1947;-44
2023/01/17 16:49:50;;;;;;;;;;;;;;;18.96;32.02;92455.16;10353932;28;1990;-44
2023/01/17 16:54:51;;;;;;;;;;;;;;;18.93;31.77;92462.94;10367019;28;1907;-44
2023/01/17 16:59:52;;;;;;;;;;;;;;;18.97;31.83;92469.81;10352555;28;1955;-43
2023/01/17 17:04:52;;;;;;;;;;;;;;;18.97;32.14;92469.03;10362410;28;1978;-43
2023/01/17 17:09:52;;;;;;;;;;;;;;;18.98;32.47;92476.56;10363842;28;2109;-46
2023/01/17 17:14:52;;;;;;;;;;;;;;;19.02;31.80;92480.03;10358616;28;1974;-42
2023/01/17 17:19:53;;;;;;;;;;;;;;;19.06;33.41;92488.75;10361910;28;2038;-45
2023/01/17 17:24:53;;;;;;;;;;;;;;;19.07;32.54;92492.13;10355282;28;1915;-43
2023/01/17 17:29:53;;;;;;;;;;;;;;;19.07;32.50;92500.78;10356119;28;1943;-43
2023/01/17 17:34:54;;;;;;;;;;;;;;;19.08;31.78;92517.31;10356751;28;1959;-47
2023/01/17 17:39:54;;;;;;;;;;;;;;;19.06;31.19;92530.00;10361036;28;2003;-44
2023/01/17 17:44:55;;;;;;;;;;;;;;;19.08;31.54;92539.03;10367448;28;1910;-44
2023/01/17 17:49:55;;;;;;;;;;;;;;;19.06;31.16;92551.75;10368211;28;1716;-42
2023/01/17 17:54:55;;;;;;;;;;;;;;;19.04;31.03;92553.94;10360436;28;1907;-43
2023/01/17 17:59:58;;;;;;;;;;;;;;;19.06;30.96;92551.00;10356183;28;2012;-43
2023/01/17 18:04:58;;;;;;;;;;;;;;;19.14;31.30;92540.34;10356725;28;2153;-44
2023/01/17 18:09:58;;;;;;;;;;;;;;;19.12;30.99;92521.53;10354760;28;1967;-43
2023/01/17 18:14:59;;;;;;;;;;;;;;;19.11;31.24;92521.84;10354358;28;2120;-42
2023/01/17 18:19:59;;;;;;;;;;;;;;;19.13;31.34;92536.16;10354772;28;2042;-42
2023/01/17 18:24:59;;;;;;;;;;;;;;;19.12;30.93;92529.41;10357039;28;1982;-42
2023/01/17 18:30:00;;;;;;;;;;;;;;;19.11;31.09;92542.84;10348125;28;2014;-43
2023/01/17 18:35:02;;;;;;;;;;;;;;;19.12;30.93;92544.41;10353634;28;2076;-46
2023/01/17 18:40:03;;;;;;;;;;;;;;;19.13;31.70;92536.16;10345244;28;2007;-45
2023/01/17 18:45:03;;;;;;;;;;;;;;;19.21;31.02;92548.34;10371287;28;2161;-43
2023/01/17 18:50:04;;;;;;;;;;;;;;;19.27;31.26;92568.00;10354515;28;1928;-46
2023/01/17 18:55:04;;;;;;;;;;;;;;;19.26;31.47;92587.50;10350223;28;2065;-43
2023/01/17 19:00:06;;;;;;;;;;;;;;;19.28;31.43;92580.03;10353583;28;2098;-44
2023/01/17 19:05:08;;;;;;;;;;;;;;;19.28;31.01;92587.16;10352480;28;1970;-45
2023/01/17 19:10:08;;;;;;;;;;;;;;;19.31;30.79;92608.22;10352670;28;1931;-47
2023/01/17 19:15:09;;;;;;;;;;;;;;;19.28;30.72;92616.81;10349018;28;2031;-44
2023/01/17 19:20:12;;;;;;;;;;;;;;;19.40;32.92;92640.38;10354440;28;1919;-51
2023/01/17 19:25:12;;;;;;;;;;;;;;;19.44;31.39;92640.44;10350995;28;1990;-45
2023/01/17 19:30:12;;;;;;;;;;;;;;;19.37;31.06;92635.78;10349722;28;2014;-43
2023/01/17 19:35:12;;;;;;;;;;;;;;;19.40;31.48;92632.50;10345956;28;1939;-48
2023/01/17 19:40:13;;;;;;;;;;;;;;;19.40;30.94;92634.34;10347004;28;1995;-45
2023/01/17 19:45:13;;;;;;;;;;;;;;;19.41;30.89;92644.50;10343939;28;2184;-44
2023/01/17 19:50:15;;;;;;;;;;;;;;;19.45;31.27;92647.25;10348819;28;1971;-42
2023/01/17 19:55:16;;;;;;;;;;;;;;;19.47;30.81;92632.63;10362356;28;1974;-41
2023/01/17 20:00:19;;;;;;;;;;;;;;;19.53;32.05;92627.91;10352499;28;1931;-44
2023/01/17 20:05:19;;;;;;;;;;;;;;;19.61;32.31;92621.72;10344411;28;1995;-44
2023/01/17 20:10:20;;;;;;;;;;;;;;;19.65;32.57;92640.16;10350900;28;1973;-45
2023/01/17 20:15:22;;;;;;;;;;;;;;;19.65;32.39;92630.44;10345892;28;1975;-48
2023/01/17 20:20:23;;;;;;;;;;;;;;;19.69;32.77;92615.50;10334256;28;2050;-49
2023/01/17 20:25:23;;;;;;;;;;;;;;;19.71;33.13;92623.03;10351386;28;1947;-43
2023/01/17 20:30:28;;;;;;;;;;;;;;;19.72;32.74;92614.06;10345632;28;1948;-42
2023/01/17 20:35:30;;;;;;;;;;;;;;;19.75;32.68;92618.63;10353095;28;2033;-43
2023/01/17 20:40:31;;;;;;;;;;;;;;;19.76;32.52;92628.03;10353359;28;1872;-42
2023/01/17 20:45:31;;;;;;;;;;;;;;;19.84;33.16;92634.97;10343772;28;2006;-45
2023/01/17 20:50:31;;;;;;;;;;;;;;;19.89;32.66;92637.31;10345943;28;2144;-45
2023/01/17 20:55:31;;;;;;;;;;;;;;;19.86;32.75;92633.53;10354369;28;1935;-47
2023/01/17 21:00:36;;;;;;;;;;;;;;;19.86;32.55;92641.41;10348389;28;2038;-44
2023/01/17 21:05:36;;;;;;;;;;;;;;;19.85;32.69;92631.22;10354793;28;2027;-44
2023/01/17 21:10:37;;;;;;;;;;;;;;;19.86;32.28;92636.16;10350795;28;1955;-44
2023/01/17 21:15:45;;;;;;;;;;;;;;;19.85;32.72;92636.47;10360359;28;2124;-44
2023/01/17 21:20:45;;;;;;;;;;;;;;;19.82;32.55;92640.56;10357244;28;1966;-45
2023/01/17 21:25:58;;;;;;;;;;;;;;;19.83;32.59;92636.06;10347509;28;2035;-45
2023/01/17 21:30:58;;;;;;;;;;;;;;;19.84;32.87;92640.22;10361244;28;1984;-44
2023/01/17 21:36:06;;;;;;;;;;;;;;;19.82;33.36;92645.84;10355493;28;2085;-43
2023/01/17 21:41:06;;;;;;;;;;;;;;;19.82;33.06;92645.84;10347647;28;1994;-44
2023/01/17 21:46:07;;;;;;;;;;;;;;;19.79;32.71;92643.88;10350034;28;1980;-44
2023/01/17 21:51:07;;;;;;;;;;;;;;;19.76;32.90;92647.19;10359862;28;2014;-44
2023/01/17 22:01:29;;;;;;;;;;;;;;;19.73;33.10;92647.09;10360907;28;1955;-44
2023/01/17 22:06:29;;;;;;;;;;;;;;;19.73;33.07;92647.88;10354029;28;1971;-44
2023/01/17 22:11:30;;;;;;;;;;;;;;;19.71;33.01;92654.56;10362179;28;2019;-43
2023/01/17 22:16:30;;;;;;;;;;;;;;;19.71;34.02;92659.81;10364408;28;1956;-47
2023/01/17 22:21:30;;;;;;;;;;;;;;;19.69;33.89;92672.53;10350899;28;2186;-48
2023/01/17 22:26:30;;;;;;;;;;;;;;;19.67;33.78;92683.41;10355033;28;2017;-44
2023/01/17 22:31:31;;;;;;;;;;;;;;;19.67;34.10;92680.00;10362912;28;1947;-46
2023/01/17 22:36:31;;;;;;;;;;;;;;;19.65;34.18;92684.84;10352313;28;1996;-44
2023/01/17 22:41:33;;;;;;;;;;;;;;;19.64;34.03;92691.22;10369390;28;1962;-44
2023/01/17 22:46:35;;;;;;;;;;;;;;;19.59;33.85;92683.56;10354781;28;2110;-43
2023/01/17 22:51:36;;;;;;;;;;;;;;;19.57;34.29;92696.28;10356864;28;2026;-45
2023/01/17 22:56:37;;;;;;;;;;;;;;;19.57;34.22;92676.03;10349765;28;1923;-50
2023/01/17 23:01:39;;;;;;;;;;;;;;;19.54;34.32;92681.22;10352372;28;1939;-43
2023/01/17 23:06:39;;;;;;;;;;;;;;;19.51;34.14;92685.28;10350558;28;1982;-46
2023/01/17 23:11:48;;;;;;;;;;;;;;;19.48;34.09;92685.94;10360128;28;2065;-45
2023/01/17 23:22:20;;;;;;;;;;;;;;;19.43;34.08;92697.47;10360815;28;2085;-43
2023/01/17 23:32:42;;;;;;;;;;;;;;;19.37;34.16;92704.06;10354154;28;2059;-44
2023/01/17 23:48:20;;;;;;;;;;;;;;;19.33;34.09;92703.22;10348431;28;2006;-44
2023/01/17 23:53:23;;;;;;;;;;;;;;;19.32;34.01;92703.53;10345722;28;1887;-45
2023/01/17 23:58:24;;;;;;;;;;;;;;;19.30;34.03;92708.38;10352308;28;2010;-47
